Lexington, SC (29071)

6:47 AM EDT on September 27, 2016 (GMT -0400)
Barre St & Third Ave | | Change Station

Elev 420 ft 33.98 °N, 81.24 °W | Updated 1 minute ago

Partly Cloudy
Partly Cloudy
67.3 °F
Feels Like 67.3 °F
N
0.0
Wind Variable Wind from SSW

Today
High -- | Low -- °F
--% Chance of Precip.
Yesterday
High -- | Low -- °F
Precip. -- in
Pressure 29.95 in
Visibility 6.0 miles
Clouds Few 13000 ft
Dew Point 65 °F
Humidity 93%
Rainfall 0.00 in
Snow Depth Not available.
7:16 AM 7:14 PM
Waning Crescent, 12% visible
METAR KCAE 270956Z 00000KT 6SM BR FEW130 21/19 A2995 RMK AO2 SLP140 T02060194
Pressure 29.95 in
Visibility 6.0 miles
Clouds Few 13000 ft
Dew Point 65 °F
Humidity 93%
Rainfall 0.00 in
Snow Depth Not available.
7:16 AM 7:14 PM
Waning Crescent, 12% visible
METAR KCAE 270956Z 00000KT 6SM BR FEW130 21/19 A2995 RMK AO2 SLP140 T02060194

10-Day Weather Forecast

Almanac

Astronomy

Sep. 27, 2016 Rise Set
Actual Time
Civil Twilight
Nautical Twilight
Astronomical Twilight
Moon
Length of Visible Light
Length of Day
Tomorrow will be .
, % of the Moon is Illuminated

Today's Extremes

State Highs State Lows

Community

WunderPhotos

Upload Photos

1,942,057 photos uploaded!

WunderBlog® & News

Nearby

Air Quality

  Air Quality AQ Index Pollutant
Not available.

Snow Depth

Station Depth Elevation

Earthquake Activity

City Distance Mag. Time & Date
Minimum magnitude displayed is 2.5.

Coastal Water Temperatures

Place Temperature

Stations

Nearby Weather Stations

Station Location Temp. Windchill Dew Point Humidity Wind Precip. Elev Updated Type
                   

Watches & Warnings

There are currently no watches in effect.